createdAt,value
2022-10-14T00:00:15.979Z,27.98
2022-10-14T00:02:43.282Z,26.80
2022-10-14T00:05:10.811Z,27.38
2022-10-14T00:07:38.239Z,30.13
2022-10-14T00:10:07.646Z,29.65
2022-10-14T00:12:34.977Z,30.45
2022-10-14T00:15:02.379Z,30.90
2022-10-14T00:17:29.737Z,31.83
2022-10-14T00:19:57.042Z,31.70
2022-10-14T00:22:24.543Z,31.95
2022-10-14T00:24:51.903Z,31.95
2022-10-14T00:27:20.926Z,32.22
2022-10-14T00:29:48.566Z,31.98
2022-10-14T00:32:15.869Z,31.52
2022-10-14T00:34:43.265Z,32.78
2022-10-14T00:37:10.561Z,31.50
2022-10-14T00:39:38.001Z,33.20
2022-10-14T00:42:05.431Z,34.10
2022-10-14T00:44:51.447Z,34.42
2022-10-14T00:47:20.318Z,34.35
2022-10-14T00:49:47.823Z,34.53
2022-10-14T00:52:17.198Z,34.28
2022-10-14T00:54:45.743Z,32.25
2022-10-14T00:57:13.177Z,32.40
2022-10-14T00:59:40.610Z,34.08
2022-10-14T01:02:07.889Z,33.33
2022-10-14T01:04:37.464Z,31.98
2022-10-14T01:07:08.724Z,34.35
2022-10-14T01:09:39.907Z,33.85
2022-10-14T01:12:28.752Z,33.70
2022-10-14T01:15:04.621Z,33.20
2022-10-14T01:17:36.838Z,33.90
2022-10-14T01:20:22.650Z,35.05
2022-10-14T01:22:57.563Z,34.15
2022-10-14T01:28:06.166Z,35.55
2022-10-14T01:30:35.715Z,36.65
2022-10-14T01:33:06.866Z,36.72
2022-10-14T01:35:40.572Z,37.08
2022-10-14T01:38:09.714Z,36.65
2022-10-14T01:40:40.338Z,38.72
2022-10-14T01:43:07.937Z,37.83
2022-10-14T01:45:37.998Z,37.65
2022-10-14T01:48:06.270Z,37.75
2022-10-14T01:50:35.198Z,36.10
2022-10-14T01:53:04.210Z,34.85
2022-10-14T01:55:34.039Z,35.88
2022-10-14T01:58:01.948Z,34.90
2022-10-14T02:00:29.224Z,34.30
2022-10-14T02:02:58.164Z,37.40
2022-10-14T02:05:29.469Z,34.20
2022-10-14T02:07:59.281Z,34.08
2022-10-14T02:10:35.206Z,33.45
2022-10-14T02:13:08.616Z,32.92
2022-10-14T02:15:45.610Z,32.25
2022-10-14T02:18:17.655Z,33.10
2022-10-14T02:20:50.515Z,33.50
2022-10-14T02:23:19.941Z,32.03
2022-10-14T02:25:48.353Z,32.53
2022-10-14T02:28:17.184Z,33.40
2022-10-14T02:30:46.476Z,34.88
2022-10-14T02:33:15.360Z,33.05
2022-10-14T02:35:44.018Z,32.58
2022-10-14T02:38:11.463Z,33.42
2022-10-14T02:40:40.641Z,32.40
2022-10-14T02:43:10.098Z,32.88
2022-10-14T02:45:40.246Z,34.22
2022-10-14T02:48:08.222Z,32.63
2022-10-14T02:50:36.961Z,34.03
2022-10-14T02:53:04.335Z,32.38
2022-10-14T02:55:31.661Z,35.42
2022-10-14T02:57:58.955Z,33.20
2022-10-14T03:00:26.277Z,32.33
2022-10-14T03:02:53.645Z,34.53
2022-10-14T03:05:20.974Z,35.42
2022-10-14T03:07:49.612Z,34.75
2022-10-14T03:10:17.294Z,34.15
2022-10-14T03:12:44.689Z,34.55
2022-10-14T03:15:12.124Z,35.20
2022-10-14T03:17:39.758Z,33.97
2022-10-14T03:20:07.785Z,34.38
2022-10-14T03:22:35.311Z,33.30
2022-10-14T03:25:04.238Z,32.60
2022-10-14T03:27:32.136Z,35.17
2022-10-14T03:29:59.399Z,35.15
2022-10-14T03:32:26.769Z,35.45
2022-10-14T03:34:54.067Z,32.90
2022-10-14T03:37:21.360Z,32.15
2022-10-14T03:39:48.659Z,31.88
2022-10-14T03:42:17.297Z,31.08
2022-10-14T03:44:44.843Z,28.83
2022-10-14T03:47:12.170Z,27.67
2022-10-14T03:49:39.513Z,26.95
2022-10-14T03:52:06.836Z,25.90
2022-10-14T03:54:34.187Z,27.15
2022-10-14T03:57:01.469Z,26.95
2022-10-14T03:59:30.622Z,26.98
2022-10-14T04:01:57.975Z,25.83
2022-10-14T04:04:25.400Z,26.60
2022-10-14T04:06:52.695Z,26.92
2022-10-14T04:09:20.664Z,24.75
2022-10-14T04:11:47.978Z,22.30
2022-10-14T04:14:15.674Z,24.90
2022-10-14T04:16:48.902Z,23.20
2022-10-14T04:19:17.351Z,23.23
2022-10-14T04:21:44.671Z,20.63
2022-10-14T04:24:12.537Z,18.48
2022-10-14T04:26:39.908Z,15.98
2022-10-14T04:29:07.234Z,16.60
2022-10-14T04:31:34.640Z,15.95
2022-10-14T04:34:03.404Z,15.65
2022-10-14T04:36:30.702Z,22.00
2022-10-14T04:38:58.034Z,24.77
2022-10-14T04:41:25.433Z,22.52
2022-10-14T04:43:52.754Z,25.52
2022-10-14T04:46:20.117Z,25.35
2022-10-14T04:48:48.136Z,26.38
2022-10-14T04:51:17.039Z,26.10
2022-10-14T04:53:44.425Z,27.60
2022-10-14T04:56:11.907Z,28.17
2022-10-14T04:58:39.228Z,27.27
2022-10-14T05:01:06.660Z,27.98
2022-10-14T05:03:34.020Z,28.35
2022-10-14T05:06:01.336Z,26.58
2022-10-14T05:08:29.992Z,27.20
2022-10-14T05:10:57.336Z,26.67
2022-10-14T05:13:24.620Z,26.65
2022-10-14T05:15:52.439Z,26.23
2022-10-14T05:18:19.777Z,26.30
2022-10-14T05:20:47.103Z,26.17
2022-10-14T05:23:14.474Z,25.58
2022-10-14T05:25:43.314Z,26.00
2022-10-14T05:28:10.625Z,25.63
2022-10-14T05:30:37.945Z,25.73
2022-10-14T05:33:05.303Z,23.85
2022-10-14T05:35:57.196Z,23.48
2022-10-14T05:38:19.963Z,24.13
2022-10-14T05:40:53.521Z,23.83
2022-10-14T05:43:20.831Z,21.92
2022-10-14T05:45:48.161Z,21.23
2022-10-14T05:48:15.563Z,19.77
2022-10-14T05:50:43.160Z,18.63
2022-10-14T05:53:10.540Z,19.05
2022-10-14T05:55:38.062Z,20.33
2022-10-14T05:58:06.797Z,19.85
2022-10-14T06:00:34.533Z,18.15
2022-10-14T06:03:01.886Z,16.67
2022-10-14T06:05:29.227Z,14.45
2022-10-14T06:07:56.743Z,14.77
2022-10-14T06:10:24.089Z,14.77
2022-10-14T06:12:51.399Z,14.60
2022-10-14T06:15:20.052Z,13.95
2022-10-14T06:17:47.430Z,13.68
2022-10-14T06:20:14.739Z,13.43
2022-10-14T06:22:42.049Z,13.43
2022-10-14T06:25:09.822Z,13.45
2022-10-14T06:27:37.297Z,12.77
2022-10-14T06:30:04.951Z,12.93
2022-10-14T06:32:33.644Z,11.95
2022-10-14T06:35:01.178Z,12.07
2022-10-14T06:37:28.483Z,11.70
2022-10-14T06:39:55.776Z,11.32
2022-10-14T06:42:23.423Z,13.18
2022-10-14T06:44:51.033Z,12.60
2022-10-14T06:47:18.335Z,13.32
2022-10-14T06:49:47.008Z,15.10
2022-10-14T06:52:14.383Z,14.93
2022-10-14T06:54:45.925Z,15.88
2022-10-14T06:57:15.571Z,15.45
2022-10-14T06:59:42.857Z,16.60
2022-10-14T07:02:10.254Z,13.93
2022-10-14T07:04:37.540Z,13.52
2022-10-14T07:07:07.194Z,12.93
2022-10-14T07:09:34.543Z,13.80
2022-10-14T07:12:02.257Z,13.95
2022-10-14T07:14:29.625Z,14.27
2022-10-14T07:16:56.898Z,15.73
2022-10-14T07:19:24.250Z,17.02
2022-10-14T07:21:51.572Z,16.92
2022-10-14T07:24:20.290Z,17.67
2022-10-14T07:26:47.621Z,17.58
2022-10-14T07:29:15.188Z,17.05
2022-10-14T07:31:42.630Z,15.60
2022-10-14T07:34:09.906Z,15.90
2022-10-14T07:36:37.349Z,16.58
2022-10-14T07:39:06.529Z,15.75
2022-10-14T07:41:35.214Z,15.27
2022-10-14T07:44:05.645Z,15.45
2022-10-14T07:46:34.298Z,15.10
2022-10-14T07:49:02.924Z,13.82
2022-10-14T07:51:30.499Z,15.05
2022-10-14T07:53:58.639Z,14.95
2022-10-14T07:56:26.047Z,14.15
2022-10-14T07:58:54.982Z,14.07
2022-10-14T08:01:24.107Z,14.85
2022-10-14T08:03:51.818Z,14.40
2022-10-14T08:06:19.150Z,14.10
2022-10-14T08:08:46.540Z,13.80
2022-10-14T08:11:14.775Z,13.15
2022-10-14T08:13:45.251Z,13.63
2022-10-14T08:16:16.785Z,13.85
2022-10-14T08:18:44.374Z,14.07
2022-10-14T08:21:11.700Z,14.07
2022-10-14T08:23:39.048Z,14.25
2022-10-14T08:26:16.144Z,13.13
2022-10-14T08:28:43.537Z,14.23
2022-10-14T08:31:10.898Z,13.65
2022-10-14T08:33:39.573Z,13.45
2022-10-14T08:36:07.158Z,13.05
2022-10-14T08:38:34.525Z,13.32
2022-10-14T08:41:05.278Z,13.90
2022-10-14T08:43:34.497Z,14.00
2022-10-14T08:46:05.839Z,12.70
2022-10-14T08:48:35.148Z,13.10
2022-10-14T08:51:06.205Z,12.43
2022-10-14T08:53:35.008Z,13.38
2022-10-14T08:56:02.874Z,13.77
2022-10-14T08:58:32.888Z,15.32
2022-10-14T09:01:02.455Z,14.98
2022-10-14T09:03:33.768Z,15.80
2022-10-14T09:06:02.698Z,15.60
2022-10-14T09:08:34.038Z,15.50
2022-10-14T09:11:01.509Z,15.00
2022-10-14T09:13:31.623Z,15.45
2022-10-14T09:16:01.822Z,13.73
2022-10-14T09:18:36.358Z,13.77
2022-10-14T09:21:04.995Z,14.02
2022-10-14T09:23:34.167Z,12.52
2022-10-14T09:26:09.907Z,13.70
2022-10-14T09:28:38.849Z,13.50
2022-10-14T09:31:06.737Z,13.77
2022-10-14T09:33:42.049Z,12.27
2022-10-14T09:36:12.359Z,11.15
2022-10-14T09:38:41.094Z,11.13
2022-10-14T09:41:11.289Z,10.77
2022-10-14T09:46:12.218Z,11.27
2022-10-14T09:48:43.564Z,11.05
2022-10-14T09:51:12.259Z,10.88
2022-10-14T09:53:45.288Z,9.90
2022-10-14T09:56:13.175Z,9.68
2022-10-14T09:58:43.730Z,9.82
2022-10-14T10:01:15.989Z,9.75
2022-10-14T10:03:45.707Z,9.70
2022-10-14T10:06:14.511Z,9.88
2022-10-14T10:08:55.929Z,9.82
2022-10-14T10:11:28.313Z,9.07
2022-10-14T10:13:56.029Z,9.02
2022-10-14T10:16:24.379Z,8.85
2022-10-14T10:18:52.233Z,8.82
2022-10-14T10:21:21.007Z,7.93
2022-10-14T10:23:53.522Z,8.20
2022-10-14T10:26:25.818Z,7.57
2022-10-14T10:28:53.912Z,8.90
2022-10-14T10:31:28.421Z,9.68
2022-10-14T10:34:01.689Z,10.05
2022-10-14T10:36:31.094Z,10.30
2022-10-14T10:39:01.180Z,10.75
2022-10-14T10:41:36.870Z,10.27
2022-10-14T10:44:22.311Z,10.55
2022-10-14T10:46:57.733Z,10.90
2022-10-14T10:49:31.776Z,10.00
2022-10-14T10:52:00.851Z,10.57
2022-10-14T10:54:39.351Z,9.82
2022-10-14T10:57:11.928Z,11.27
2022-10-14T10:59:48.518Z,10.38
2022-10-14T11:02:24.659Z,10.30
2022-10-14T11:04:55.548Z,10.57
2022-10-14T11:07:56.463Z,10.05
2022-10-14T11:10:48.883Z,9.95
2022-10-14T11:13:21.871Z,9.65
2022-10-14T11:15:51.300Z,9.57
2022-10-14T11:18:23.499Z,10.15
2022-10-14T11:20:58.367Z,11.40
2022-10-14T11:25:56.506Z,11.82
2022-10-14T11:28:27.651Z,10.93
2022-10-14T11:30:59.888Z,11.15
2022-10-14T11:33:38.980Z,11.27
2022-10-14T11:36:13.144Z,11.35
2022-10-14T11:38:50.109Z,12.10
2022-10-14T11:41:24.760Z,11.88
2022-10-14T11:43:56.550Z,12.90
2022-10-14T11:46:26.279Z,12.00
2022-10-14T11:48:55.114Z,13.55
2022-10-14T11:51:24.251Z,12.02
2022-10-14T11:53:59.532Z,12.70
2022-10-14T11:56:33.160Z,12.48
2022-10-14T11:59:20.484Z,12.70
2022-10-14T12:01:52.039Z,13.15
2022-10-14T12:04:23.695Z,13.00
2022-10-14T12:06:55.529Z,13.25
2022-10-14T12:09:25.028Z,13.65
2022-10-14T12:11:57.028Z,12.05
2022-10-14T12:14:29.264Z,14.88
2022-10-14T12:16:56.763Z,14.10
2022-10-14T12:19:25.558Z,14.93
2022-10-14T12:21:55.041Z,16.05
2022-10-14T12:24:22.952Z,14.90
2022-10-14T12:26:51.463Z,15.65
2022-10-14T12:29:21.629Z,15.95
2022-10-14T12:31:50.119Z,14.88
2022-10-14T12:34:34.729Z,14.48
2022-10-14T12:37:27.158Z,14.93
2022-10-14T12:40:17.640Z,14.07
2022-10-14T12:42:57.612Z,14.70
2022-10-14T12:45:27.159Z,16.27
2022-10-14T12:48:02.402Z,15.70
2022-10-14T12:50:31.664Z,16.13
2022-10-14T12:52:59.983Z,15.48
2022-10-14T12:55:28.331Z,14.40
2022-10-14T12:57:57.066Z,13.40
2022-10-14T13:00:33.105Z,14.20
2022-10-14T13:03:02.077Z,14.27
2022-10-14T13:05:32.788Z,15.77
2022-10-14T13:08:14.538Z,15.38
2022-10-14T13:10:47.831Z,14.18
2022-10-14T13:13:33.851Z,14.13
2022-10-14T13:16:03.534Z,12.05
2022-10-14T13:18:35.980Z,12.52
2022-10-14T13:21:03.402Z,13.52
2022-10-14T13:23:34.714Z,12.40
2022-10-14T13:26:10.233Z,13.05
2022-10-14T13:28:40.308Z,13.80
2022-10-14T13:31:13.114Z,13.75
2022-10-14T13:33:43.369Z,13.18
2022-10-14T13:36:14.560Z,13.55
2022-10-14T13:38:44.433Z,14.10
2022-10-14T13:41:15.899Z,13.68
2022-10-14T13:43:43.869Z,15.75
2022-10-14T13:46:15.220Z,14.80
2022-10-14T13:48:44.808Z,14.88
2022-10-14T13:51:36.123Z,15.25
2022-10-14T13:54:10.394Z,13.10
2022-10-14T13:56:37.728Z,13.15
2022-10-14T13:59:32.934Z,14.02
2022-10-14T14:02:12.742Z,12.93
2022-10-14T14:04:40.238Z,11.18
2022-10-14T14:07:47.366Z,10.05
2022-10-14T14:09:58.171Z,8.77
2022-10-14T14:12:25.914Z,8.35
2022-10-14T14:14:53.345Z,7.22
2022-10-14T14:17:23.315Z,7.00
2022-10-14T14:19:52.572Z,7.00
2022-10-14T14:22:21.324Z,6.55
2022-10-14T14:24:49.119Z,6.45
2022-10-14T14:27:19.032Z,5.88
2022-10-14T14:29:47.461Z,5.55
2022-10-14T14:32:16.205Z,6.07
2022-10-14T14:34:46.345Z,3.35
2022-10-14T14:37:40.290Z,3.38
2022-10-14T14:40:03.010Z,3.38
2022-10-14T14:42:33.878Z,3.47
2022-10-14T14:45:03.521Z,4.00
2022-10-14T14:47:31.677Z,3.38
2022-10-14T14:50:28.571Z,3.67
2022-10-14T14:52:49.346Z,3.63
2022-10-14T14:55:35.181Z,3.65
2022-10-14T14:58:03.665Z,3.00
2022-10-14T15:00:31.088Z,2.90
2022-10-14T15:03:00.269Z,3.22
2022-10-14T15:05:29.737Z,2.80
2022-10-14T15:07:57.351Z,3.22
2022-10-14T15:10:26.251Z,2.50
2022-10-14T15:12:54.261Z,2.67
2022-10-14T15:15:26.585Z,2.35
2022-10-14T15:18:06.072Z,2.20
2022-10-14T15:20:36.670Z,2.50
2022-10-14T15:23:26.889Z,2.75
2022-10-14T15:25:57.947Z,3.08
2022-10-14T15:28:29.663Z,2.75
2022-10-14T15:31:01.523Z,3.25
2022-10-14T15:33:32.333Z,2.58
2022-10-14T15:36:02.579Z,2.50
2022-10-14T15:40:58.653Z,3.88
2022-10-14T15:43:26.949Z,8.38
2022-10-14T15:46:08.844Z,11.15
2022-10-14T15:48:36.489Z,6.90
2022-10-14T15:51:05.228Z,6.18
2022-10-14T15:53:33.393Z,5.30
2022-10-14T15:56:01.150Z,6.93
2022-10-14T15:58:28.482Z,7.55
2022-10-14T16:00:55.837Z,5.95
2022-10-14T16:03:23.237Z,5.95
2022-10-14T16:05:50.860Z,5.97
2022-10-14T16:08:19.586Z,5.90
2022-10-14T16:10:48.417Z,6.38
2022-10-14T16:13:16.140Z,5.90
2022-10-14T16:15:47.473Z,5.63
2022-10-14T16:18:14.856Z,5.35
2022-10-14T16:20:42.162Z,5.72
2022-10-14T16:23:14.924Z,7.25
2022-10-14T16:25:44.956Z,6.00
2022-10-14T16:28:12.500Z,4.55
2022-10-14T16:30:40.766Z,5.38
2022-10-14T16:33:08.257Z,4.78
2022-10-14T16:35:35.597Z,4.43
2022-10-14T16:38:02.915Z,5.00
2022-10-14T16:40:35.731Z,5.28
2022-10-14T16:43:05.580Z,5.72
2022-10-14T16:45:33.162Z,6.05
2022-10-14T16:48:00.489Z,5.63
2022-10-14T16:50:27.831Z,6.00
2022-10-14T16:53:12.711Z,5.88
2022-10-14T16:55:40.327Z,5.78
2022-10-14T16:58:08.998Z,6.40
2022-10-14T17:00:36.304Z,6.07
2022-10-14T17:03:03.645Z,4.97
2022-10-14T17:05:30.953Z,5.65
2022-10-14T17:07:58.281Z,5.88
2022-10-14T17:10:25.792Z,6.38
2022-10-14T17:12:54.580Z,6.70
2022-10-14T17:15:23.407Z,7.10
2022-10-14T17:17:50.813Z,5.75
2022-10-14T17:20:20.213Z,4.10
2022-10-14T17:22:49.560Z,3.97
2022-10-14T17:25:17.718Z,3.80
2022-10-14T17:27:45.099Z,4.30
2022-10-14T17:30:13.028Z,4.05
2022-10-14T17:32:41.740Z,3.63
2022-10-14T17:35:12.816Z,3.83
2022-10-14T17:37:42.553Z,4.50
2022-10-14T17:40:10.385Z,4.15
2022-10-14T17:42:38.205Z,4.28
2022-10-14T17:45:06.073Z,4.60
2022-10-14T17:47:34.022Z,4.95
2022-10-14T17:50:02.722Z,4.60
2022-10-14T17:52:30.035Z,5.15
2022-10-14T17:54:58.993Z,5.60
2022-10-14T17:57:28.740Z,7.20
2022-10-14T17:59:56.208Z,5.75
2022-10-14T18:02:23.693Z,6.13
2022-10-14T18:04:51.073Z,7.25
2022-10-14T18:07:22.656Z,7.47
2022-10-14T18:09:50.226Z,7.25
2022-10-14T18:12:17.617Z,7.60
2022-10-14T18:14:44.987Z,8.15
2022-10-14T18:17:12.956Z,7.30
2022-10-14T18:19:40.676Z,8.30
2022-10-14T18:22:08.059Z,8.80
2022-10-14T18:24:38.039Z,9.75
2022-10-14T18:27:05.570Z,8.27
2022-10-14T18:29:32.901Z,8.05
2022-10-14T18:32:00.203Z,8.90
2022-10-14T18:34:27.657Z,8.70
2022-10-14T18:36:55.050Z,9.15
2022-10-14T18:39:22.491Z,8.18
2022-10-14T18:41:51.183Z,8.57
2022-10-14T18:44:18.508Z,8.98
2022-10-14T18:46:47.414Z,8.95
2022-10-14T18:49:14.740Z,8.95
2022-10-14T18:51:43.218Z,9.18
2022-10-14T18:54:13.509Z,9.82
2022-10-14T18:56:40.878Z,10.25
2022-10-14T18:59:10.264Z,8.90
2022-10-14T19:01:38.002Z,9.23
2022-10-14T19:04:06.263Z,7.97
2022-10-14T19:06:33.835Z,8.00
2022-10-14T19:09:02.118Z,7.93
2022-10-14T19:11:30.351Z,8.60
2022-10-14T19:13:58.993Z,9.00
2022-10-14T19:16:28.286Z,9.43
2022-10-14T19:18:56.151Z,9.07
2022-10-14T19:21:26.547Z,8.07
2022-10-14T19:23:53.940Z,8.60
2022-10-14T19:26:22.406Z,9.10
2022-10-14T19:28:50.539Z,9.23
2022-10-14T19:31:18.698Z,11.68
2022-10-14T19:33:47.759Z,10.57
2022-10-14T19:36:15.988Z,9.88
2022-10-14T19:38:46.051Z,8.80
2022-10-14T19:41:13.387Z,9.20
2022-10-14T19:43:40.686Z,9.68
2022-10-14T19:46:08.865Z,9.88
2022-10-14T19:48:36.199Z,10.88
2022-10-14T19:51:07.155Z,11.35
2022-10-14T19:53:34.815Z,10.95
2022-10-14T19:56:05.363Z,10.55
2022-10-14T19:58:32.715Z,10.18
2022-10-14T20:01:00.286Z,11.82
2022-10-14T20:03:27.704Z,10.88
2022-10-14T20:06:01.078Z,9.75
2022-10-14T20:08:29.965Z,9.93
2022-10-14T20:10:57.371Z,9.93
2022-10-14T20:13:24.693Z,8.93
2022-10-14T20:15:55.409Z,10.02
2022-10-14T20:18:23.178Z,9.43
2022-10-14T20:20:50.666Z,7.95
2022-10-14T20:23:18.530Z,8.45
2022-10-14T20:25:47.310Z,7.43
2022-10-14T20:28:15.532Z,6.30
2022-10-14T20:30:43.616Z,7.43
2022-10-14T20:33:10.946Z,7.60
2022-10-14T20:35:38.490Z,6.07
2022-10-14T20:38:05.896Z,5.85
2022-10-14T20:40:34.860Z,5.60
2022-10-14T20:43:03.557Z,6.47
2022-10-14T20:45:31.316Z,7.53
2022-10-14T20:47:58.834Z,6.07
2022-10-14T20:50:26.275Z,6.57
2022-10-14T20:52:53.588Z,7.00
2022-10-14T20:55:20.932Z,7.53
2022-10-14T20:57:48.277Z,7.25
2022-10-14T21:00:17.526Z,6.55
2022-10-14T21:02:44.856Z,3.95
2022-10-14T21:05:12.226Z,2.80
2022-10-14T21:07:39.541Z,2.28
2022-10-14T21:10:07.280Z,2.33
2022-10-14T21:12:34.576Z,4.55
2022-10-14T21:15:01.929Z,9.32
2022-10-14T21:17:30.568Z,4.22
2022-10-14T21:19:57.867Z,2.92
2022-10-14T21:22:25.640Z,3.50
2022-10-14T21:24:53.202Z,2.92
2022-10-14T21:27:20.960Z,3.65
2022-10-14T21:29:48.885Z,3.60
2022-10-14T21:32:16.694Z,3.33
2022-10-14T21:34:45.418Z,3.58
2022-10-14T21:37:12.751Z,4.30
2022-10-14T21:39:40.095Z,3.63
2022-10-14T21:42:07.492Z,3.90
2022-10-14T21:44:34.867Z,4.28
2022-10-14T21:47:02.347Z,4.78
2022-10-14T21:49:29.703Z,4.43
2022-10-14T21:51:58.393Z,4.22
2022-10-14T21:54:26.027Z,4.47
2022-10-14T21:56:53.460Z,4.68
2022-10-14T21:59:20.883Z,4.97
2022-10-14T22:01:48.252Z,4.22
2022-10-14T22:04:15.563Z,4.22
2022-10-14T22:06:42.889Z,3.63
2022-10-14T22:09:11.543Z,3.10
2022-10-14T22:11:39.601Z,4.00
2022-10-14T22:14:08.423Z,3.60
2022-10-14T22:16:36.186Z,3.80
2022-10-14T22:19:04.473Z,3.50
2022-10-14T22:21:33.329Z,3.67
2022-10-14T22:24:00.757Z,3.33
2022-10-14T22:26:30.197Z,3.38
2022-10-14T22:28:58.464Z,3.80
2022-10-14T22:31:25.897Z,3.47
2022-10-14T22:33:53.319Z,3.63
2022-10-14T22:36:23.850Z,3.50
2022-10-14T22:38:53.947Z,3.42
2022-10-14T22:41:21.739Z,3.38
2022-10-14T22:43:51.098Z,3.63
2022-10-14T22:46:20.277Z,3.40
2022-10-14T22:48:48.000Z,3.20
2022-10-14T22:51:15.991Z,3.33
2022-10-14T22:53:44.448Z,4.13
2022-10-14T22:56:13.028Z,3.67
2022-10-14T22:58:40.382Z,3.65
2022-10-14T23:01:09.519Z,3.05
2022-10-14T23:03:37.290Z,3.45
2022-10-14T23:06:05.968Z,3.30
2022-10-14T23:08:33.861Z,2.83
2022-10-14T23:11:01.462Z,3.58
2022-10-14T23:13:28.826Z,3.25
2022-10-14T23:15:56.473Z,3.83
2022-10-14T23:18:25.732Z,3.20
2022-10-14T23:20:53.161Z,3.58
2022-10-14T23:23:20.623Z,3.65
2022-10-14T23:25:47.955Z,4.03
2022-10-14T23:28:15.290Z,4.20
2022-10-14T23:30:42.657Z,4.10
2022-10-14T23:33:11.639Z,3.60
2022-10-14T23:35:40.417Z,3.80
2022-10-14T23:38:07.710Z,4.85
2022-10-14T23:40:35.046Z,3.60
2022-10-14T23:43:02.410Z,3.85
2022-10-14T23:45:29.721Z,3.13
2022-10-14T23:47:57.071Z,2.80
2022-10-14T23:50:24.409Z,3.08
2022-10-14T23:52:53.066Z,3.00
2022-10-14T23:55:20.417Z,2.85
2022-10-14T23:57:47.727Z,3.20
